WetterOnline ( https://www.wetteronline.ch )

Wetter aktuell Niestetal

Aktuelles Wetter: Schauenburg-Elgershausen (317m)

6-stündlich | Neueste Meldungen
Ortszeit Temperatur Wetter
Do, 19.09. 2:00 6.6° C wolkig
Mi, 18.09. 20:00 9.6° C wolkenlos
Mi, 18.09. 14:00 12.9° C wolkig
Mi, 18.09. 8:00 7.0° C leicht bewölkt
Mi, 18.09. 2:00 7.9° C fast wolkenlos
Di, 17.09. 20:00 11.1° C bedeckt
Di, 17.09. 14:00 15.0° C bewölkt
Di, 17.09. 8:00 10.5° C bewölkt
Ortszeit Temperatur Wetter
Do, 19.09. 6:00 4.5° C wolkenlos
Do, 19.09. 5:40 4.4° C wolkenlos
Do, 19.09. 5:30 4.9° C wolkenlos
Do, 19.09. 5:20 4.9° C wolkenlos
Do, 19.09. 5:10 4.3° C fast wolkenlos
Do, 19.09. 5:00 4.5° C fast wolkenlos
Do, 19.09. 4:50 4.5° C fast wolkenlos
Do, 19.09. 4:30 5.2° C wolkig
Do, 19.09. 4:00 5.4° C wolkig
Do, 19.09. 3:30 5.6° C wolkig
Do, 19.09. 3:00 6.1° C wolkig
Ortszeit Relative Feuchte Sichtweite
Do, 19.09. 2:00 87% 50 km
Mi, 18.09. 20:00 70% 45 km
Mi, 18.09. 14:00 52% 50 km
Mi, 18.09. 8:00 88% 26 km
Mi, 18.09. 2:00 81% 30 km
Di, 17.09. 20:00 79% 40 km
Di, 17.09. 14:00 57% 40 km
Di, 17.09. 8:00 89% 24 km
Ortszeit Relative Feuchte Sichtweite
Do, 19.09. 6:00 91% 35 km
Do, 19.09. 5:40 91% -
Do, 19.09. 5:30 91% 35 km
Do, 19.09. 5:20 91% -
Do, 19.09. 5:10 91% -
Do, 19.09. 5:00 91% 40 km
Do, 19.09. 4:50 91% -
Do, 19.09. 4:30 89% 45 km
Do, 19.09. 4:00 90% 45 km
Do, 19.09. 3:30 89% 45 km
Do, 19.09. 3:00 87% 45 km
Ortszeit Niederschlagsmenge Niederschlagsart
Do, 19.09. 2:00 0.0 l/m2 in 6 Std. -
Mi, 18.09. 20:00 0.0 l/m2 in 12 Std. -
Mi, 18.09. 14:00 0.0 l/m2 in 6 Std. -
Mi, 18.09. 8:00 0.0 l/m2 in 12 Std. -
Mi, 18.09. 2:00 0.0 l/m2 in 6 Std. -
Di, 17.09. 20:00 0.2 l/m2 in 12 Std. Regen
Di, 17.09. 14:00 0.0 l/m2 in 6 Std. -
Di, 17.09. 8:00 0.1 l/m2 in 12 Std. -
Ortszeit Niederschlagsmenge Niederschlagsart
Do, 19.09. 6:00 0.0 l/m2 in 1 Std. -
Do, 19.09. 5:40 keine Meldung -
Do, 19.09. 5:30 0.0 l/m2 in 1 Std. -
Do, 19.09. 5:20 keine Meldung -
Do, 19.09. 5:10 keine Meldung -
Do, 19.09. 5:00 0.0 l/m2 in 1 Std. -
Do, 19.09. 4:50 keine Meldung -
Do, 19.09. 4:30 0.0 l/m2 in 1 Std. -
Do, 19.09. 4:00 0.0 l/m2 in 1 Std. -
Do, 19.09. 3:30 0.0 l/m2 in 1 Std. -
Do, 19.09. 3:00 0.0 l/m2 in 1 Std. -
Ortszeit Stärke Spitze Richtung
km/h Bft. km/h Grad Sektor
Do, 19.09. 2:00 7 2 19 310° NW
Mi, 18.09. 20:00 7 2 32 320° NW
Mi, 18.09. 14:00 18 3 32 300° NW
Mi, 18.09. 8:00 9 2 30 280° W
Mi, 18.09. 2:00 15 3 28 310° NW
Di, 17.09. 20:00 14 3 47 310° NW
Di, 17.09. 14:00 24 4 37 290° W
Di, 17.09. 8:00 6 1 13 270° W
Ortszeit Stärke Spitze Richtung
km/h Bft. km/h Grad Sektor
Do, 19.09. 6:00 9 2 11 310° NW
Do, 19.09. 5:40 7 2 - 320° NW
Do, 19.09. 5:30 7 2 11 310° NW
Do, 19.09. 5:20 7 2 - 310° NW
Do, 19.09. 5:10 7 2 - 310° NW
Do, 19.09. 5:00 9 2 11 300° NW
Do, 19.09. 4:50 9 2 - 300° NW
Do, 19.09. 4:30 9 2 11 320° NW
Do, 19.09. 4:00 9 2 11 310° NW
Do, 19.09. 3:30 7 2 11 350° N
Do, 19.09. 3:00 7 2 11 310° NW
Ortszeit Untergrenze Bedeckung Gattung
total tief tief mittel hoch
Do, 19.09. 2:00 9000 m 8/8 0/8 - - -
Mi, 18.09. 20:00 - 0/8 0/8 - - -
Mi, 18.09. 14:00 1500 m 5/8 5/8 - - -
Mi, 18.09. 8:00 1320 m 4/8 2/8 - - -
Mi, 18.09. 2:00 10500 m 2/8 0/8 - - -
Di, 17.09. 20:00 870 m 8/8 8/8 - - -
Di, 17.09. 14:00 1110 m 7/8 7/8 - - -
Di, 17.09. 8:00 480 m 7/8 7/8 - - -
Ortszeit Bedeckungsgrad in Achtel und Wolkenuntergrenze
Do, 19.09. 6:00 keine Wolken
Do, 19.09. 5:40 keine Wolken
Do, 19.09. 5:30 keine Wolken
Do, 19.09. 5:20 keine Wolken
Do, 19.09. 5:10 1(9000m)
Do, 19.09. 5:00 1(9000m)
Do, 19.09. 4:50 1(9000m)
Do, 19.09. 4:30 6(8700m) 7(10500m)
Do, 19.09. 4:00 8(8400m) 8(9000m)
Do, 19.09. 3:30 8(8700m) 8(9000m)
Do, 19.09. 3:00 8(9000m) 8(10500m)
Ortszeit Luftdruck NN (hPa) Tendenz (hPa in 3 Std.)
Do, 19.09. 2:00 1029 + 0,7
Mi, 18.09. 20:00 1026 + 0,2
Mi, 18.09. 14:00 1026 - 0,3
Mi, 18.09. 8:00 1026 + 1,0
Mi, 18.09. 2:00 1024 + 1,1
Di, 17.09. 20:00 1020 + 1,2
Di, 17.09. 14:00 1019 - 0,6
Di, 17.09. 8:00 1020 + 0,2
Ortszeit Luftdruck NN (hPa) Tendenz (hPa in 3 Std.)
Do, 19.09. 6:00 1029 + 0,3
Do, 19.09. 5:40 1029 keine Meldung
Do, 19.09. 5:30 1029 + 0,1
Do, 19.09. 5:20 1029 keine Meldung
Do, 19.09. 5:10 1029 keine Meldung
Do, 19.09. 5:00 1029 + 0,1
Do, 19.09. 4:50 1029 keine Meldung
Do, 19.09. 4:30 1029 + 0,2
Do, 19.09. 4:00 1029 + 0,3
Do, 19.09. 3:30 1029 + 0,4
Do, 19.09. 3:00 1029 + 0,5
Ortszeit Schneehöhe (cm)
Do, 19.09. 2:00 -
Mi, 18.09. 20:00 -
Mi, 18.09. 14:00 -
Mi, 18.09. 8:00 -
Mi, 18.09. 2:00 -
Di, 17.09. 20:00 -
Di, 17.09. 14:00 -
Di, 17.09. 8:00 -
Ortszeit Schneehöhe (cm)
Do, 19.09. 6:00 -
Do, 19.09. 5:40 -
Do, 19.09. 5:30 -
Do, 19.09. 5:20 -
Do, 19.09. 5:10 -
Do, 19.09. 5:00 -
Do, 19.09. 4:50 -
Do, 19.09. 4:30 -
Do, 19.09. 4:00 -
Do, 19.09. 3:30 -
Do, 19.09. 3:00 -
Link zu dieser Seite / Seite empfehlen

Das Wetter in ...